sensor_id;sensor_type;location;lat;lon;timestamp;pressure;altitude;pressure_sealevel;temperature;humidity
79376;BME280;68846;53.150;18.136;2023-04-28T00:00:29;101576.73;;;2.99;62.45
79376;BME280;68846;53.150;18.136;2023-04-28T00:03:15;101576.77;;;2.94;62.75
79376;BME280;68846;53.150;18.136;2023-04-28T00:05:41;101581.75;;;2.93;62.58
79376;BME280;68846;53.150;18.136;2023-04-28T00:08:08;101580.18;;;2.95;62.45
79376;BME280;68846;53.150;18.136;2023-04-28T00:10:34;101576.30;;;2.98;62.47
79376;BME280;68846;53.150;18.136;2023-04-28T00:13:00;101579.55;;;3.03;62.22
79376;BME280;68846;53.150;18.136;2023-04-28T00:15:27;101579.67;;;3.08;62.47
79376;BME280;68846;53.150;18.136;2023-04-28T00:17:53;101577.26;;;3.09;62.41
79376;BME280;68846;53.150;18.136;2023-04-28T00:20:20;101581.71;;;3.05;62.56
79376;BME280;68846;53.150;18.136;2023-04-28T00:22:46;101581.22;;;2.92;62.65
79376;BME280;68846;53.150;18.136;2023-04-28T00:25:14;101581.55;;;2.79;62.95
79376;BME280;68846;53.150;18.136;2023-04-28T00:27:40;101582.21;;;2.67;62.83
79376;BME280;68846;53.150;18.136;2023-04-28T00:30:08;101582.17;;;2.60;63.22
79376;BME280;68846;53.150;18.136;2023-04-28T00:32:34;101578.45;;;2.59;63.20
79376;BME280;68846;53.150;18.136;2023-04-28T00:35:00;101580.27;;;2.60;63.06
79376;BME280;68846;53.150;18.136;2023-04-28T00:37:26;101584.27;;;2.63;63.52
79376;BME280;68846;53.150;18.136;2023-04-28T00:39:57;101582.90;;;2.64;63.34
79376;BME280;68846;53.150;18.136;2023-04-28T00:42:23;101580.58;;;2.63;63.45
79376;BME280;68846;53.150;18.136;2023-04-28T00:44:50;101583.31;;;2.62;63.71
79376;BME280;68846;53.150;18.136;2023-04-28T00:47:17;101584.91;;;2.59;63.51
79376;BME280;68846;53.150;18.136;2023-04-28T00:49:44;101582.42;;;2.58;63.58
79376;BME280;68846;53.150;18.136;2023-04-28T00:52:10;101580.20;;;2.59;63.71
79376;BME280;68846;53.150;18.136;2023-04-28T00:54:36;101588.30;;;2.58;63.55
79376;BME280;68846;53.150;18.136;2023-04-28T00:57:03;101584.14;;;2.55;63.30
79376;BME280;68846;53.150;18.136;2023-04-28T00:59:30;101585.41;;;2.56;63.62
79376;BME280;68846;53.150;18.136;2023-04-28T01:01:58;101573.36;;;2.49;63.50
79376;BME280;68846;53.150;18.136;2023-04-28T01:04:25;101583.42;;;2.55;63.56
79376;BME280;68846;53.150;18.136;2023-04-28T01:06:54;101577.77;;;2.53;63.36
79376;BME280;68846;53.150;18.136;2023-04-28T01:09:21;101578.43;;;2.52;63.50
79376;BME280;68846;53.150;18.136;2023-04-28T01:11:48;101578.71;;;2.48;63.72
79376;BME280;68846;53.150;18.136;2023-04-28T01:14:31;101572.41;;;2.36;63.46
79376;BME280;68846;53.150;18.136;2023-04-28T01:16:58;101579.04;;;2.39;63.55
79376;BME280;68846;53.150;18.136;2023-04-28T01:19:24;101581.08;;;2.34;63.64
79376;BME280;68846;53.150;18.136;2023-04-28T01:21:52;101576.60;;;2.30;63.85
79376;BME280;68846;53.150;18.136;2023-04-28T01:24:20;101578.06;;;2.25;63.95
79376;BME280;68846;53.150;18.136;2023-04-28T01:26:47;101577.16;;;2.19;63.65
79376;BME280;68846;53.150;18.136;2023-04-28T01:29:13;101582.98;;;2.11;63.97
79376;BME280;68846;53.150;18.136;2023-04-28T01:31:40;101567.60;;;2.01;64.09
79376;BME280;68846;53.150;18.136;2023-04-28T01:34:07;101586.73;;;2.07;64.12
79376;BME280;68846;53.150;18.136;2023-04-28T01:36:35;101580.95;;;2.06;63.99
79376;BME280;68846;53.150;18.136;2023-04-28T01:39:02;101580.53;;;2.08;63.87
79376;BME280;68846;53.150;18.136;2023-04-28T01:41:28;101581.13;;;2.09;64.19
79376;BME280;68846;53.150;18.136;2023-04-28T01:43:57;101581.92;;;2.10;64.35
79376;BME280;68846;53.150;18.136;2023-04-28T01:46:25;101565.20;;;2.01;64.08
79376;BME280;68846;53.150;18.136;2023-04-28T01:48:51;101578.52;;;2.06;64.34
79376;BME280;68846;53.150;18.136;2023-04-28T01:51:17;101576.13;;;1.98;64.33
79376;BME280;68846;53.150;18.136;2023-04-28T01:53:43;101580.31;;;1.90;64.53
79376;BME280;68846;53.150;18.136;2023-04-28T01:56:10;101577.71;;;1.87;64.46
79376;BME280;68846;53.150;18.136;2023-04-28T01:58:37;101579.09;;;1.86;64.68
79376;BME280;68846;53.150;18.136;2023-04-28T02:01:04;101577.28;;;1.83;64.55
79376;BME280;68846;53.150;18.136;2023-04-28T02:03:31;101578.41;;;1.78;64.67
79376;BME280;68846;53.150;18.136;2023-04-28T02:05:57;101581.73;;;1.76;64.56
79376;BME280;68846;53.150;18.136;2023-04-28T02:08:24;101581.64;;;1.69;64.65
79376;BME280;68846;53.150;18.136;2023-04-28T02:10:51;101578.74;;;1.64;64.71
79376;BME280;68846;53.150;18.136;2023-04-28T02:13:17;101577.77;;;1.59;64.94
79376;BME280;68846;53.150;18.136;2023-04-28T02:15:43;101576.08;;;1.57;65.12
79376;BME280;68846;53.150;18.136;2023-04-28T02:18:10;101576.45;;;1.57;65.03
79376;BME280;68846;53.150;18.136;2023-04-28T02:20:39;101576.59;;;1.60;64.72
79376;BME280;68846;53.150;18.136;2023-04-28T02:23:07;101578.14;;;1.63;64.74
79376;BME280;68846;53.150;18.136;2023-04-28T02:25:33;101578.45;;;1.65;64.89
79376;BME280;68846;53.150;18.136;2023-04-28T02:28:00;101577.24;;;1.65;64.74
79376;BME280;68846;53.150;18.136;2023-04-28T02:30:26;101562.70;;;1.54;64.87
79376;BME280;68846;53.150;18.136;2023-04-28T02:32:54;101573.89;;;1.59;64.92
79376;BME280;68846;53.150;18.136;2023-04-28T02:35:20;101585.31;;;1.64;65.11
79376;BME280;68846;53.150;18.136;2023-04-28T02:37:47;101586.46;;;1.62;65.28
79376;BME280;68846;53.150;18.136;2023-04-28T02:40:13;101581.23;;;1.59;65.27
79376;BME280;68846;53.150;18.136;2023-04-28T02:42:39;101581.64;;;1.52;65.40
79376;BME280;68846;53.150;18.136;2023-04-28T02:45:06;101581.54;;;1.47;65.52
79376;BME280;68846;53.150;18.136;2023-04-28T02:47:57;101555.55;;;1.31;65.63
79376;BME280;68846;53.150;18.136;2023-04-28T02:50:27;101582.59;;;1.45;65.30
79376;BME280;68846;53.150;18.136;2023-04-28T02:52:53;101585.88;;;1.44;65.64
79376;BME280;68846;53.150;18.136;2023-04-28T02:55:19;101585.86;;;1.42;65.52
79376;BME280;68846;53.150;18.136;2023-04-28T02:57:49;101581.08;;;1.31;65.80
79376;BME280;68846;53.150;18.136;2023-04-28T03:00:15;101579.35;;;1.28;65.68
79376;BME280;68846;53.150;18.136;2023-04-28T03:02:44;101584.60;;;1.32;65.91
79376;BME280;68846;53.150;18.136;2023-04-28T03:05:11;101582.39;;;1.36;65.81
79376;BME280;68846;53.150;18.136;2023-04-28T03:07:37;101580.10;;;1.38;65.78
79376;BME280;68846;53.150;18.136;2023-04-28T03:10:04;101580.10;;;1.41;65.65
79376;BME280;68846;53.150;18.136;2023-04-28T03:12:30;101578.42;;;1.42;65.41
79376;BME280;68846;53.150;18.136;2023-04-28T03:14:57;101577.31;;;1.43;65.65
79376;BME280;68846;53.150;18.136;2023-04-28T03:17:23;101572.73;;;1.45;65.70
79376;BME280;68846;53.150;18.136;2023-04-28T03:19:50;101567.00;;;1.37;66.18
79376;BME280;68846;53.150;18.136;2023-04-28T03:22:16;101561.86;;;1.35;66.49
79376;BME280;68846;53.150;18.136;2023-04-28T03:24:42;101571.31;;;1.42;66.54
79376;BME280;68846;53.150;18.136;2023-04-28T03:27:09;101573.44;;;1.40;66.95
79376;BME280;68846;53.150;18.136;2023-04-28T03:29:35;101577.76;;;1.37;67.85
79376;BME280;68846;53.150;18.136;2023-04-28T03:32:02;101579.23;;;1.32;68.58
79376;BME280;68846;53.150;18.136;2023-04-28T03:34:28;101579.50;;;1.31;68.93
79376;BME280;68846;53.150;18.136;2023-04-28T03:36:55;101582.05;;;1.30;68.14
79376;BME280;68846;53.150;18.136;2023-04-28T03:39:25;101583.11;;;1.33;67.66
79376;BME280;68846;53.150;18.136;2023-04-28T03:41:52;101567.16;;;1.22;67.72
79376;BME280;68846;53.150;18.136;2023-04-28T03:44:36;101573.72;;;1.36;67.51
79376;BME280;68846;53.150;18.136;2023-04-28T03:47:02;101577.65;;;1.40;67.62
79376;BME280;68846;53.150;18.136;2023-04-28T03:49:29;101585.81;;;1.49;67.43
79376;BME280;68846;53.150;18.136;2023-04-28T03:51:56;101589.96;;;1.49;67.43
79376;BME280;68846;53.150;18.136;2023-04-28T03:54:22;101590.68;;;1.49;67.51
79376;BME280;68846;53.150;18.136;2023-04-28T03:56:48;101591.73;;;1.49;67.20
79376;BME280;68846;53.150;18.136;2023-04-28T03:59:14;101577.48;;;1.41;67.34
79376;BME280;68846;53.150;18.136;2023-04-28T04:01:42;101592.70;;;1.43;67.32
79376;BME280;68846;53.150;18.136;2023-04-28T04:04:08;101591.94;;;1.36;67.23
79376;BME280;68846;53.150;18.136;2023-04-28T04:06:34;101583.00;;;1.23;67.71
79376;BME280;68846;53.150;18.136;2023-04-28T04:09:00;101597.22;;;1.26;67.77
79376;BME280;68846;53.150;18.136;2023-04-28T04:11:27;101595.14;;;1.23;67.85
79376;BME280;68846;53.150;18.136;2023-04-28T04:13:54;101596.93;;;1.27;68.17
79376;BME280;68846;53.150;18.136;2023-04-28T04:16:21;101599.05;;;1.33;68.11
79376;BME280;68846;53.150;18.136;2023-04-28T04:18:47;101600.13;;;1.45;68.24
79376;BME280;68846;53.150;18.136;2023-04-28T04:21:17;101597.30;;;1.55;67.77
79376;BME280;68846;53.150;18.136;2023-04-28T04:23:44;101599.85;;;1.65;68.02
79376;BME280;68846;53.150;18.136;2023-04-28T04:26:11;101602.61;;;1.74;67.83
79376;BME280;68846;53.150;18.136;2023-04-28T04:28:37;101609.23;;;1.77;68.03
79376;BME280;68846;53.150;18.136;2023-04-28T04:31:04;101613.05;;;1.77;68.41
79376;BME280;68846;53.150;18.136;2023-04-28T04:33:31;101610.26;;;1.80;68.43
79376;BME280;68846;53.150;18.136;2023-04-28T04:35:58;101609.42;;;1.83;68.70
79376;BME280;68846;53.150;18.136;2023-04-28T04:38:24;101608.14;;;1.87;68.41
79376;BME280;68846;53.150;18.136;2023-04-28T04:40:51;101607.33;;;1.94;68.75
79376;BME280;68846;53.150;18.136;2023-04-28T04:43:18;101607.36;;;2.01;68.44
79376;BME280;68846;53.150;18.136;2023-04-28T04:45:47;101615.00;;;2.09;68.68
79376;BME280;68846;53.150;18.136;2023-04-28T04:48:14;101610.05;;;2.16;68.76
79376;BME280;68846;53.150;18.136;2023-04-28T04:50:40;101613.30;;;2.24;69.32
79376;BME280;68846;53.150;18.136;2023-04-28T04:53:07;101610.42;;;2.34;69.04
79376;BME280;68846;53.150;18.136;2023-04-28T04:55:34;101610.45;;;2.47;69.10
79376;BME280;68846;53.150;18.136;2023-04-28T04:58:00;101613.09;;;2.59;69.13
79376;BME280;68846;53.150;18.136;2023-04-28T05:00:42;101611.99;;;2.74;68.84
79376;BME280;68846;53.150;18.136;2023-04-28T05:03:09;101615.39;;;2.84;68.85
79376;BME280;68846;53.150;18.136;2023-04-28T05:05:38;101602.65;;;2.84;68.49
79376;BME280;68846;53.150;18.136;2023-04-28T05:08:15;101617.77;;;2.95;68.52
79376;BME280;68846;53.150;18.136;2023-04-28T05:10:41;101612.48;;;3.01;68.18
79376;BME280;68846;53.150;18.136;2023-04-28T05:13:08;101612.89;;;3.05;68.48
79376;BME280;68846;53.150;18.136;2023-04-28T05:15:34;101601.98;;;3.03;68.12
79376;BME280;68846;53.150;18.136;2023-04-28T05:18:24;101614.98;;;3.14;67.87
79376;BME280;68846;53.150;18.136;2023-04-28T05:20:51;101613.33;;;3.18;67.76
79376;BME280;68846;53.150;18.136;2023-04-28T05:23:18;101613.30;;;3.25;67.84
79376;BME280;68846;53.150;18.136;2023-04-28T05:25:44;101613.42;;;3.30;67.66
79376;BME280;68846;53.150;18.136;2023-04-28T05:28:11;101616.73;;;3.37;67.31
79376;BME280;68846;53.150;18.136;2023-04-28T05:30:37;101617.30;;;3.43;67.07
79376;BME280;68846;53.150;18.136;2023-04-28T05:33:03;101613.48;;;3.50;67.19
79376;BME280;68846;53.150;18.136;2023-04-28T05:35:30;101619.59;;;3.57;67.06
79376;BME280;68846;53.150;18.136;2023-04-28T05:37:57;101604.71;;;3.59;66.61
79376;BME280;68846;53.150;18.136;2023-04-28T05:40:24;101605.46;;;3.70;66.37
79376;BME280;68846;53.150;18.136;2023-04-28T05:42:51;101610.23;;;3.87;66.19
79376;BME280;68846;53.150;18.136;2023-04-28T05:45:17;101606.65;;;3.99;65.86
79376;BME280;68846;53.150;18.136;2023-04-28T05:47:43;101605.23;;;4.09;65.46
79376;BME280;68846;53.150;18.136;2023-04-28T05:50:10;101593.06;;;4.12;65.67
79376;BME280;68846;53.150;18.136;2023-04-28T05:52:36;101601.98;;;4.30;65.45
79376;BME280;68846;53.150;18.136;2023-04-28T05:55:03;101603.66;;;4.39;65.00
79376;BME280;68846;53.150;18.136;2023-04-28T05:57:30;101600.80;;;4.44;64.88
79376;BME280;68846;53.150;18.136;2023-04-28T05:59:56;101588.96;;;4.45;64.58
79376;BME280;68846;53.150;18.136;2023-04-28T06:02:22;101599.95;;;4.55;64.17
79376;BME280;68846;53.150;18.136;2023-04-28T06:04:48;101606.73;;;4.62;64.14
79376;BME280;68846;53.150;18.136;2023-04-28T06:07:15;101606.36;;;4.69;63.72
79376;BME280;68846;53.150;18.136;2023-04-28T06:09:41;101611.88;;;4.74;63.40
79376;BME280;68846;53.150;18.136;2023-04-28T06:12:07;101608.86;;;4.80;63.38
79376;BME280;68846;53.150;18.136;2023-04-28T06:14:34;101610.20;;;4.87;63.35
79376;BME280;68846;53.150;18.136;2023-04-28T06:17:02;101597.80;;;4.86;63.09
79376;BME280;68846;53.150;18.136;2023-04-28T06:19:29;101615.23;;;5.00;62.93
79376;BME280;68846;53.150;18.136;2023-04-28T06:21:56;101610.94;;;5.05;62.84
79376;BME280;68846;53.150;18.136;2023-04-28T06:24:22;101612.31;;;5.12;62.56
79376;BME280;68846;53.150;18.136;2023-04-28T06:26:48;101613.83;;;5.19;62.80
79376;BME280;68846;53.150;18.136;2023-04-28T06:29:14;101599.37;;;5.19;62.58
79376;BME280;68846;53.150;18.136;2023-04-28T06:31:41;101609.54;;;5.31;62.22
79376;BME280;68846;53.150;18.136;2023-04-28T06:34:07;101596.79;;;5.31;61.80
79376;BME280;68846;53.150;18.136;2023-04-28T06:36:34;101605.70;;;5.42;61.27
79376;BME280;68846;53.150;18.136;2023-04-28T06:39:01;101606.13;;;5.48;61.56
79376;BME280;68846;53.150;18.136;2023-04-28T06:41:28;101603.43;;;5.54;61.47
79376;BME280;68846;53.150;18.136;2023-04-28T06:43:55;101602.16;;;5.60;61.11
79376;BME280;68846;53.150;18.136;2023-04-28T06:46:25;101601.21;;;5.66;60.98
79376;BME280;68846;53.150;18.136;2023-04-28T06:48:52;101589.85;;;5.67;60.78
79376;BME280;68846;53.150;18.136;2023-04-28T06:51:18;101588.88;;;5.72;60.46
79376;BME280;68846;53.150;18.136;2023-04-28T06:53:45;101596.41;;;5.84;60.41
79376;BME280;68846;53.150;18.136;2023-04-28T06:56:13;101596.06;;;5.91;60.39
79376;BME280;68846;53.150;18.136;2023-04-28T06:58:39;101593.71;;;5.98;60.52
79376;BME280;68846;53.150;18.136;2023-04-28T07:01:06;101597.85;;;6.04;60.41
79376;BME280;68846;53.150;18.136;2023-04-28T07:03:32;101595.53;;;6.11;60.41
79376;BME280;68846;53.150;18.136;2023-04-28T07:05:59;101588.50;;;6.18;60.18
79376;BME280;68846;53.150;18.136;2023-04-28T07:08:25;101563.95;;;6.13;60.12
79376;BME280;68846;53.150;18.136;2023-04-28T07:10:51;101587.37;;;6.33;60.32
79376;BME280;68846;53.150;18.136;2023-04-28T07:13:18;101568.89;;;6.34;59.78
79376;BME280;68846;53.150;18.136;2023-04-28T07:15:44;101580.33;;;6.48;59.68
79376;BME280;68846;53.150;18.136;2023-04-28T07:18:10;101577.66;;;6.55;59.55
79376;BME280;68846;53.150;18.136;2023-04-28T07:20:37;101563.00;;;6.57;59.52
79376;BME280;68846;53.150;18.136;2023-04-28T07:23:03;101561.28;;;6.62;59.07
79376;BME280;68846;53.150;18.136;2023-04-28T07:25:30;101569.93;;;6.77;58.40
79376;BME280;68846;53.150;18.136;2023-04-28T07:27:56;101568.66;;;6.84;57.59
79376;BME280;68846;53.150;18.136;2023-04-28T07:30:23;101567.05;;;6.92;57.53
79376;BME280;68846;53.150;18.136;2023-04-28T07:32:49;101563.91;;;7.01;56.91
79376;BME280;68846;53.150;18.136;2023-04-28T07:35:16;101560.04;;;7.10;56.50
79376;BME280;68846;53.150;18.136;2023-04-28T07:37:42;101556.88;;;7.18;56.68
79376;BME280;68846;53.150;18.136;2023-04-28T07:40:08;101553.73;;;7.28;56.67
79376;BME280;68846;53.150;18.136;2023-04-28T07:42:34;101547.41;;;7.37;55.56
79376;BME280;68846;53.150;18.136;2023-04-28T07:45:01;101547.20;;;7.45;55.68
79376;BME280;68846;53.150;18.136;2023-04-28T07:47:27;101544.66;;;7.52;55.25
79376;BME280;68846;53.150;18.136;2023-04-28T07:49:54;101544.42;;;7.60;54.42
79376;BME280;68846;53.150;18.136;2023-04-28T07:52:20;101543.62;;;7.67;54.17
79376;BME280;68846;53.150;18.136;2023-04-28T07:54:46;101533.77;;;7.75;53.83
79376;BME280;68846;53.150;18.136;2023-04-28T07:57:13;101537.02;;;7.88;52.62
79376;BME280;68846;53.150;18.136;2023-04-28T07:59:39;101535.63;;;7.98;52.35
79376;BME280;68846;53.150;18.136;2023-04-28T08:02:05;101533.84;;;8.07;51.83
79376;BME280;68846;53.150;18.136;2023-04-28T08:04:32;101528.40;;;8.18;51.97
79376;BME280;68846;53.150;18.136;2023-04-28T08:06:59;101527.48;;;8.32;52.42
79376;BME280;68846;53.150;18.136;2023-04-28T08:09:26;101525.34;;;8.46;52.09
79376;BME280;68846;53.150;18.136;2023-04-28T08:11:59;101524.09;;;8.61;51.29
79376;BME280;68846;53.150;18.136;2023-04-28T08:14:40;101526.13;;;8.81;50.41
79376;BME280;68846;53.150;18.136;2023-04-28T08:17:07;101517.09;;;9.02;49.76
79376;BME280;68846;53.150;18.136;2023-04-28T08:19:33;101522.17;;;9.19;50.22
79376;BME280;68846;53.150;18.136;2023-04-28T08:21:59;101520.68;;;9.27;49.93
79376;BME280;68846;53.150;18.136;2023-04-28T08:24:30;101506.66;;;9.28;49.18
79376;BME280;68846;53.150;18.136;2023-04-28T08:27:00;101504.91;;;9.35;47.85
79376;BME280;68846;53.150;18.136;2023-04-28T08:29:29;101508.33;;;9.50;47.98
79376;BME280;68846;53.150;18.136;2023-04-28T08:31:57;101511.70;;;9.58;46.76
79376;BME280;68846;53.150;18.136;2023-04-28T08:34:23;101509.87;;;9.61;45.81
79376;BME280;68846;53.150;18.136;2023-04-28T08:36:50;101506.73;;;9.62;45.96
79376;BME280;68846;53.150;18.136;2023-04-28T08:39:17;101504.95;;;9.68;45.94
79376;BME280;68846;53.150;18.136;2023-04-28T08:41:45;101499.13;;;9.73;45.01
79376;BME280;68846;53.150;18.136;2023-04-28T08:44:11;101496.36;;;9.76;44.72
79376;BME280;68846;53.150;18.136;2023-04-28T08:46:41;101494.49;;;9.78;45.22
79376;BME280;68846;53.150;18.136;2023-04-28T08:49:15;101495.05;;;9.79;44.85
79376;BME280;68846;53.150;18.136;2023-04-28T08:51:49;101491.70;;;9.79;44.12
79376;BME280;68846;53.150;18.136;2023-04-28T08:54:16;101489.39;;;9.77;43.71
79376;BME280;68846;53.150;18.136;2023-04-28T08:56:43;101485.65;;;9.77;43.63
79376;BME280;68846;53.150;18.136;2023-04-28T08:59:10;101486.55;;;9.77;43.76
79376;BME280;68846;53.150;18.136;2023-04-28T09:01:38;101485.98;;;9.76;43.22
79376;BME280;68846;53.150;18.136;2023-04-28T09:04:04;101485.83;;;9.77;43.20
79376;BME280;68846;53.150;18.136;2023-04-28T09:06:35;101482.29;;;9.76;43.03
79376;BME280;68846;53.150;18.136;2023-04-28T09:09:22;101479.50;;;9.76;43.09
79376;BME280;68846;53.150;18.136;2023-04-28T09:12:00;101481.78;;;9.76;43.19
79376;BME280;68846;53.150;18.136;2023-04-28T09:14:27;101478.41;;;9.75;42.92
79376;BME280;68846;53.150;18.136;2023-04-28T09:16:54;101475.91;;;9.73;43.26
79376;BME280;68846;53.150;18.136;2023-04-28T09:19:20;101477.45;;;9.72;42.82
79376;BME280;68846;53.150;18.136;2023-04-28T09:21:54;101475.80;;;9.70;42.93
79376;BME280;68846;53.150;18.136;2023-04-28T09:26:54;101470.16;;;9.76;42.73
79376;BME280;68846;53.150;18.136;2023-04-28T09:29:20;101468.12;;;9.85;42.56
79376;BME280;68846;53.150;18.136;2023-04-28T09:31:47;101462.86;;;9.92;42.31
79376;BME280;68846;53.150;18.136;2023-04-28T09:34:13;101455.33;;;9.93;41.74
79376;BME280;68846;53.150;18.136;2023-04-28T09:36:40;101466.31;;;10.03;41.39
79376;BME280;68846;53.150;18.136;2023-04-28T09:39:08;101463.45;;;10.01;40.90
79376;BME280;68846;53.150;18.136;2023-04-28T09:41:43;101463.06;;;10.00;41.01
79376;BME280;68846;53.150;18.136;2023-04-28T09:44:14;101452.17;;;9.94;41.09
79376;BME280;68846;53.150;18.136;2023-04-28T09:46:42;101464.55;;;10.03;40.93
79376;BME280;68846;53.150;18.136;2023-04-28T09:49:10;101454.65;;;10.08;40.86
79376;BME280;68846;53.150;18.136;2023-04-28T09:51:36;101444.43;;;10.15;40.83
79376;BME280;68846;53.150;18.136;2023-04-28T09:54:03;101439.48;;;10.27;40.35
79376;BME280;68846;53.150;18.136;2023-04-28T09:56:31;101439.66;;;10.42;40.45
79376;BME280;68846;53.150;18.136;2023-04-28T09:58:59;101431.58;;;10.58;39.52
79376;BME280;68846;53.150;18.136;2023-04-28T10:01:27;101440.02;;;10.81;39.01
79376;BME280;68846;53.150;18.136;2023-04-28T10:03:57;101431.14;;;10.94;38.39
79376;BME280;68846;53.150;18.136;2023-04-28T10:06:26;101427.03;;;11.09;38.74
79376;BME280;68846;53.150;18.136;2023-04-28T10:08:54;101423.40;;;11.20;38.42
79376;BME280;68846;53.150;18.136;2023-04-28T10:11:22;101425.27;;;11.35;38.17
79376;BME280;68846;53.150;18.136;2023-04-28T10:13:50;101421.23;;;11.45;38.17
79376;BME280;68846;53.150;18.136;2023-04-28T10:16:16;101418.90;;;11.61;38.30
79376;BME280;68846;53.150;18.136;2023-04-28T10:18:44;101414.80;;;11.78;36.69
79376;BME280;68846;53.150;18.136;2023-04-28T10:21:11;101399.55;;;11.84;35.90
79376;BME280;68846;53.150;18.136;2023-04-28T10:23:59;101404.08;;;12.00;36.40
79376;BME280;68846;53.150;18.136;2023-04-28T10:29:24;101404.58;;;12.43;36.35
79376;BME280;68846;53.150;18.136;2023-04-28T10:34:46;101387.63;;;12.83;36.53
79376;BME280;68846;53.150;18.136;2023-04-28T10:37:13;101392.90;;;13.09;35.67
79376;BME280;68846;53.150;18.136;2023-04-28T10:42:55;101388.72;;;13.44;34.97
79376;BME280;68846;53.150;18.136;2023-04-28T10:49:08;101391.77;;;13.63;34.22
79376;BME280;68846;53.150;18.136;2023-04-28T10:56:28;101379.23;;;13.70;34.25
79376;BME280;68846;53.150;18.136;2023-04-28T10:58:55;101375.62;;;13.80;33.84
79376;BME280;68846;53.150;18.136;2023-04-28T11:01:28;101367.48;;;13.81;32.69
79376;BME280;68846;53.150;18.136;2023-04-28T11:09:01;101364.28;;;14.00;32.99
79376;BME280;68846;53.150;18.136;2023-04-28T11:11:30;101354.45;;;14.13;33.46
79376;BME280;68846;53.150;18.136;2023-04-28T11:17:09;101353.34;;;14.57;32.99
79376;BME280;68846;53.150;18.136;2023-04-28T11:19:39;101361.59;;;14.77;32.39
79376;BME280;68846;53.150;18.136;2023-04-28T11:22:26;101356.12;;;14.81;31.62
79376;BME280;68846;53.150;18.136;2023-04-28T11:25:00;101366.09;;;14.94;31.18
79376;BME280;68846;53.150;18.136;2023-04-28T11:27:29;101354.59;;;15.02;30.68
79376;BME280;68846;53.150;18.136;2023-04-28T11:29:56;101352.13;;;15.07;30.31
79376;BME280;68846;53.150;18.136;2023-04-28T11:34:52;101345.95;;;15.22;30.45
79376;BME280;68846;53.150;18.136;2023-04-28T11:37:19;101347.56;;;15.26;29.45
79376;BME280;68846;53.150;18.136;2023-04-28T11:39:46;101338.69;;;15.29;30.08
79376;BME280;68846;53.150;18.136;2023-04-28T11:42:12;101329.48;;;15.30;29.07
79376;BME280;68846;53.150;18.136;2023-04-28T11:44:39;101341.55;;;15.36;29.19
79376;BME280;68846;53.150;18.136;2023-04-28T11:47:06;101339.26;;;15.41;29.63
79376;BME280;68846;53.150;18.136;2023-04-28T11:52:06;101329.70;;;15.60;29.58
79376;BME280;68846;53.150;18.136;2023-04-28T11:54:32;101321.71;;;15.77;29.48
79376;BME280;68846;53.150;18.136;2023-04-28T11:56:59;101330.23;;;15.98;28.83
79376;BME280;68846;53.150;18.136;2023-04-28T11:59:34;101327.91;;;16.13;29.24
79376;BME280;68846;53.150;18.136;2023-04-28T12:02:05;101329.65;;;16.30;29.02
79376;BME280;68846;53.150;18.136;2023-04-28T12:04:42;101333.72;;;16.43;28.07
79376;BME280;68846;53.150;18.136;2023-04-28T12:09:37;101331.17;;;16.59;28.04
79376;BME280;68846;53.150;18.136;2023-04-28T12:12:08;101326.90;;;16.58;27.08
79376;BME280;68846;53.150;18.136;2023-04-28T12:17:25;101320.66;;;16.71;26.67
79376;BME280;68846;53.150;18.136;2023-04-28T12:19:56;101317.77;;;16.81;27.53
79376;BME280;68846;53.150;18.136;2023-04-28T12:22:23;101319.80;;;17.04;26.92
79376;BME280;68846;53.150;18.136;2023-04-28T12:27:28;101309.48;;;17.56;27.20
79376;BME280;68846;53.150;18.136;2023-04-28T12:29:54;101308.40;;;17.81;27.02
79376;BME280;68846;53.150;18.136;2023-04-28T12:32:36;101304.41;;;18.07;26.43
79376;BME280;68846;53.150;18.136;2023-04-28T12:35:07;101296.58;;;18.24;26.25
79376;BME280;68846;53.150;18.136;2023-04-28T12:37:34;101288.58;;;18.37;26.40
79376;BME280;68846;53.150;18.136;2023-04-28T12:40:01;101279.84;;;18.52;26.01
79376;BME280;68846;53.150;18.136;2023-04-28T12:42:29;101273.24;;;18.66;26.17
79376;BME280;68846;53.150;18.136;2023-04-28T12:44:55;101276.04;;;18.86;25.82
79376;BME280;68846;53.150;18.136;2023-04-28T12:47:22;101274.15;;;19.05;25.87
79376;BME280;68846;53.150;18.136;2023-04-28T12:49:48;101274.06;;;19.11;25.08
79376;BME280;68846;53.150;18.136;2023-04-28T12:52:20;101276.48;;;19.05;25.38
79376;BME280;68846;53.150;18.136;2023-04-28T12:54:48;101274.88;;;18.92;24.62
79376;BME280;68846;53.150;18.136;2023-04-28T12:57:17;101276.83;;;18.81;24.81
79376;BME280;68846;53.150;18.136;2023-04-28T12:59:45;101271.61;;;18.71;24.92
79376;BME280;68846;53.150;18.136;2023-04-28T13:02:13;101267.91;;;18.65;24.42
79376;BME280;68846;53.150;18.136;2023-04-28T13:04:42;101266.08;;;18.55;24.58
79376;BME280;68846;53.150;18.136;2023-04-28T13:07:11;101259.17;;;18.51;24.67
79376;BME280;68846;53.150;18.136;2023-04-28T13:09:38;101254.56;;;18.33;24.50
79376;BME280;68846;53.150;18.136;2023-04-28T13:12:04;101259.20;;;18.19;24.99
79376;BME280;68846;53.150;18.136;2023-04-28T13:14:31;101254.21;;;18.33;25.58
79376;BME280;68846;53.150;18.136;2023-04-28T13:16:57;101250.23;;;18.52;25.54
79376;BME280;68846;53.150;18.136;2023-04-28T13:19:24;101247.52;;;18.70;25.63
79376;BME280;68846;53.150;18.136;2023-04-28T13:21:50;101242.44;;;18.90;24.89
79376;BME280;68846;53.150;18.136;2023-04-28T13:24:16;101235.00;;;19.09;25.35
79376;BME280;68846;53.150;18.136;2023-04-28T13:26:43;101237.55;;;19.29;25.29
79376;BME280;68846;53.150;18.136;2023-04-28T13:29:09;101236.19;;;19.46;24.83
79376;BME280;68846;53.150;18.136;2023-04-28T13:31:36;101229.24;;;19.56;25.33